createdAt,value
2023-08-17T00:00:52.244Z,97104.41
2023-08-17T00:03:18.674Z,97111.41
2023-08-17T00:05:45.134Z,97114.38
2023-08-17T00:08:11.527Z,97111.63
2023-08-17T00:10:37.959Z,97106.41
2023-08-17T00:13:04.427Z,97099.38
2023-08-17T00:15:33.761Z,97100.53
2023-08-17T00:18:00.249Z,97105.22
2023-08-17T00:20:26.715Z,97090.41
2023-08-17T00:22:53.271Z,97092.34
2023-08-17T00:25:19.699Z,97093.66
2023-08-17T00:27:46.132Z,97092.81
2023-08-17T00:30:12.596Z,97100.44
2023-08-17T00:32:39.016Z,97092.13
2023-08-17T00:35:05.398Z,97103.03
2023-08-17T00:37:32.138Z,97103.53
2023-08-17T00:39:58.574Z,97099.63
2023-08-17T00:42:25.057Z,97100.28
2023-08-17T00:44:51.544Z,97095.88
2023-08-17T00:47:17.961Z,97098.16
2023-08-17T00:49:44.373Z,97096.19
2023-08-17T00:52:10.858Z,97092.94
2023-08-17T00:54:37.280Z,97091.63
2023-08-17T00:57:03.765Z,97088.50
2023-08-17T00:59:36.422Z,97101.75
2023-08-17T01:02:03.354Z,97093.91
2023-08-17T01:04:29.787Z,97098.28
2023-08-17T01:06:56.232Z,97100.88
2023-08-17T01:09:22.677Z,97102.34
2023-08-17T01:11:49.088Z,97111.31
2023-08-17T01:14:15.636Z,97099.63
2023-08-17T01:16:42.101Z,97098.19
2023-08-17T01:19:08.579Z,97102.88
2023-08-17T01:21:35.034Z,97113.44
2023-08-17T01:24:01.469Z,97109.19
2023-08-17T01:26:27.909Z,97107.03
2023-08-17T01:28:54.403Z,97100.72
2023-08-17T01:31:20.866Z,97101.22
2023-08-17T01:33:47.290Z,97098.47
2023-08-17T01:36:16.423Z,97094.88
2023-08-17T01:38:42.873Z,97086.41
2023-08-17T01:41:09.271Z,97090.94
2023-08-17T01:43:35.697Z,97100.34
2023-08-17T01:46:02.141Z,97096.25
2023-08-17T01:48:28.788Z,97086.97
2023-08-17T01:50:55.220Z,97082.56
2023-08-17T01:53:22.689Z,97087.41
2023-08-17T01:55:49.105Z,97090.47
2023-08-17T01:58:16.492Z,97081.34
2023-08-17T02:00:43.024Z,97083.47
2023-08-17T02:03:09.494Z,97081.03
2023-08-17T02:05:35.955Z,97078.78
2023-08-17T02:08:02.387Z,97083.16
2023-08-17T02:10:28.822Z,97083.69
2023-08-17T02:13:02.142Z,97076.72
2023-08-17T02:15:35.318Z,97075.72
2023-08-17T02:18:01.800Z,97067.72
2023-08-17T02:20:28.263Z,97061.22
2023-08-17T02:22:54.707Z,97060.31
2023-08-17T02:25:21.134Z,97063.19
2023-08-17T02:27:47.597Z,97049.38
2023-08-17T02:30:14.007Z,97049.72
2023-08-17T02:32:40.485Z,97049.03
2023-08-17T02:35:06.926Z,97048.34
2023-08-17T02:37:33.327Z,97046.38
2023-08-17T02:39:59.763Z,97059.88
2023-08-17T02:42:26.229Z,97046.88
2023-08-17T02:44:52.725Z,97049.94
2023-08-17T02:47:19.154Z,97039.22
2023-08-17T02:49:45.580Z,97048.44
2023-08-17T02:52:12.035Z,97039.47
2023-08-17T02:54:38.466Z,97039.47
2023-08-17T02:57:04.878Z,97033.97
2023-08-17T02:59:31.341Z,97034.59
2023-08-17T03:01:57.903Z,97033.78
2023-08-17T03:04:24.387Z,97040.09
2023-08-17T03:06:50.847Z,97033.09
2023-08-17T03:09:17.259Z,97040.38
2023-08-17T03:11:43.676Z,97038.41
2023-08-17T03:14:10.117Z,97039.22
2023-08-17T03:16:36.605Z,97042.28
2023-08-17T03:19:03.089Z,97039.84
2023-08-17T03:21:29.522Z,97040.31
2023-08-17T03:23:55.956Z,97041.22
2023-08-17T03:26:22.395Z,97045.22
2023-08-17T03:28:49.059Z,97040.53
2023-08-17T03:31:15.578Z,97042.47
2023-08-17T03:33:42.099Z,97036.75
2023-08-17T03:36:08.523Z,97034.91
2023-08-17T03:38:34.985Z,97031.34
2023-08-17T03:41:01.389Z,97033.78
2023-08-17T03:43:27.841Z,97025.81
2023-08-17T03:45:54.268Z,97032.66
2023-08-17T03:48:20.743Z,97029.59
2023-08-17T03:50:47.140Z,97037.56
2023-08-17T03:53:13.558Z,97036.94
2023-08-17T03:55:40.096Z,97046.34
2023-08-17T03:58:06.526Z,97042.47
2023-08-17T04:00:33.011Z,97045.72
2023-08-17T04:02:59.485Z,97051.25
2023-08-17T04:05:25.940Z,97058.00
2023-08-17T04:07:52.373Z,97058.63
2023-08-17T04:10:18.831Z,97064.13
2023-08-17T04:12:45.277Z,97060.25
2023-08-17T04:15:11.691Z,97065.78
2023-08-17T04:17:38.173Z,97066.88
2023-08-17T04:20:04.639Z,97064.13
2023-08-17T04:22:31.079Z,97073.34
2023-08-17T04:24:57.509Z,97067.00
2023-08-17T04:27:24.089Z,97071.72
2023-08-17T04:29:50.808Z,97073.53
2023-08-17T04:32:17.208Z,97081.50
2023-08-17T04:34:43.644Z,97087.84
2023-08-17T04:37:10.144Z,97100.50
2023-08-17T04:39:36.567Z,97105.22
2023-08-17T04:42:02.975Z,97100.81
2023-08-17T04:44:29.391Z,97105.03
2023-08-17T04:46:55.830Z,97104.19
2023-08-17T04:49:22.241Z,97097.34
2023-08-17T04:51:48.700Z,97104.63
2023-08-17T04:54:15.176Z,97111.28
2023-08-17T04:56:41.605Z,97112.38
2023-08-17T04:59:08.048Z,97109.31
2023-08-17T05:01:34.500Z,97111.75
2023-08-17T05:04:01.065Z,97119.72
2023-08-17T05:06:27.493Z,97118.31
2023-08-17T05:08:53.970Z,97124.13
2023-08-17T05:11:20.512Z,97131.69
2023-08-17T05:13:46.983Z,97137.63
2023-08-17T05:16:13.446Z,97139.19
2023-08-17T05:18:39.889Z,97155.31
2023-08-17T05:21:06.301Z,97151.53
2023-08-17T05:23:32.709Z,97155.22
2023-08-17T05:25:59.182Z,97160.72
2023-08-17T05:28:25.597Z,97163.69
2023-08-17T05:30:52.128Z,97167.66
2023-08-17T05:33:18.652Z,97181.34
2023-08-17T05:35:45.151Z,97179.25
2023-08-17T05:38:11.644Z,97189.53
2023-08-17T05:40:38.065Z,97201.84
2023-08-17T05:43:04.537Z,97201.09
2023-08-17T05:45:30.988Z,97213.00
2023-08-17T05:47:57.508Z,97216.16
2023-08-17T05:50:24.025Z,97213.53
2023-08-17T05:52:50.443Z,97220.16
2023-08-17T05:55:16.854Z,97233.84
2023-08-17T05:57:43.314Z,97223.66
2023-08-17T06:00:09.745Z,97223.03
2023-08-17T06:02:36.148Z,97225.50
2023-08-17T06:05:02.652Z,97228.25
2023-08-17T06:07:29.208Z,97223.66
2023-08-17T06:09:55.840Z,97228.63
2023-08-17T06:12:22.302Z,97223.72
2023-08-17T06:14:48.720Z,97227.69
2023-08-17T06:17:15.218Z,97231.78
2023-08-17T06:19:44.108Z,97227.13
2023-08-17T06:22:10.508Z,97229.94
2023-08-17T06:24:37.015Z,97220.38
2023-08-17T06:27:03.470Z,97220.13
2023-08-17T06:29:30.002Z,97218.84
2023-08-17T06:31:56.417Z,97221.91
2023-08-17T06:34:22.869Z,97227.53
2023-08-17T06:36:49.290Z,97218.53
2023-08-17T06:39:15.712Z,97232.25
2023-08-17T06:41:42.245Z,97232.44
2023-08-17T06:44:08.666Z,97232.66
2023-08-17T06:46:35.264Z,97229.78
2023-08-17T06:49:01.769Z,97233.88
2023-08-17T06:51:28.276Z,97232.13
2023-08-17T06:53:54.992Z,97233.78
2023-08-17T06:56:21.525Z,97235.13
2023-08-17T06:58:48.035Z,97233.19
2023-08-17T07:01:14.454Z,97241.97
2023-08-17T07:03:40.898Z,97245.88
2023-08-17T07:06:07.458Z,97254.97
2023-08-17T07:08:33.912Z,97265.47
2023-08-17T07:11:00.353Z,97276.59
2023-08-17T07:13:26.819Z,97269.13
2023-08-17T07:15:53.483Z,97269.34
2023-08-17T07:18:20.746Z,97278.16
2023-08-17T07:20:47.164Z,97277.03
2023-08-17T07:23:13.557Z,97281.94
2023-08-17T07:25:39.959Z,97273.47
2023-08-17T07:28:06.359Z,97272.63
2023-08-17T07:30:32.904Z,97274.88
2023-08-17T07:32:59.453Z,97290.09
2023-08-17T07:35:26.036Z,97296.53
2023-08-17T07:38:03.529Z,97298.66
2023-08-17T07:40:34.070Z,97301.44
2023-08-17T07:43:03.255Z,97307.19
2023-08-17T07:45:29.648Z,97302.19
2023-08-17T07:47:58.332Z,97308.19
2023-08-17T07:50:24.781Z,97304.94
2023-08-17T07:52:51.179Z,97304.69
2023-08-17T07:55:17.606Z,97304.19
2023-08-17T07:57:44.024Z,97301.44
2023-08-17T08:00:10.440Z,97290.47
2023-08-17T08:02:36.933Z,97288.88
2023-08-17T08:05:03.520Z,97294.38
2023-08-17T08:07:30.123Z,97302.94
2023-08-17T08:09:56.670Z,97300.19
2023-08-17T08:12:23.086Z,97306.72
2023-08-17T08:14:49.558Z,97304.69
2023-08-17T08:17:16.067Z,97300.78
2023-08-17T08:19:42.475Z,97291.72
2023-08-17T08:22:08.905Z,97289.56
2023-08-17T08:24:37.893Z,97292.94
2023-08-17T08:27:05.158Z,97291.00
2023-08-17T08:29:31.669Z,97280.75
2023-08-17T08:31:58.076Z,97283.81
2023-08-17T08:34:24.476Z,97280.75
2023-08-17T08:36:50.895Z,97280.19
2023-08-17T08:39:17.333Z,97270.75
2023-08-17T08:41:43.848Z,97275.16
2023-08-17T08:44:10.311Z,97270.97
2023-08-17T08:46:37.964Z,97275.56
2023-08-17T08:49:04.526Z,97270.78
2023-08-17T08:51:30.933Z,97273.47
2023-08-17T08:53:57.348Z,97266.22
2023-08-17T08:56:23.810Z,97265.28
2023-08-17T08:58:54.629Z,97268.84
2023-08-17T09:01:21.465Z,97261.41
2023-08-17T09:03:47.914Z,97257.41
2023-08-17T09:06:14.382Z,97241.25
2023-08-17T09:08:40.809Z,97232.03
2023-08-17T09:11:07.271Z,97228.88
2023-08-17T09:13:33.693Z,97227.22
2023-08-17T09:16:00.142Z,97225.28
2023-08-17T09:18:26.599Z,97228.56
2023-08-17T09:20:56.018Z,97224.69
2023-08-17T09:23:22.451Z,97223.22
2023-08-17T09:25:48.894Z,97222.41
2023-08-17T09:28:15.347Z,97215.75
2023-08-17T09:30:41.856Z,97219.03
2023-08-17T09:33:08.454Z,97206.53
2023-08-17T09:35:34.890Z,97207.03
2023-08-17T09:38:01.318Z,97204.78
2023-08-17T09:40:27.759Z,97213.09
2023-08-17T09:42:54.166Z,97217.28
2023-08-17T09:45:20.660Z,97214.13
2023-08-17T09:47:47.123Z,97227.84
2023-08-17T09:50:13.513Z,97216.91
2023-08-17T09:52:39.935Z,97211.06
2023-08-17T09:55:08.630Z,97200.03
2023-08-17T09:57:35.363Z,97198.41
2023-08-17T10:00:01.845Z,97199.44
2023-08-17T10:02:28.491Z,97191.16
2023-08-17T10:04:55.308Z,97193.31
2023-08-17T10:07:21.858Z,97189.28
2023-08-17T10:09:50.119Z,97202.59
2023-08-17T10:12:16.870Z,97186.03
2023-08-17T10:14:43.309Z,97176.00
2023-08-17T10:17:09.759Z,97170.34
2023-08-17T10:19:36.176Z,97154.81
2023-08-17T10:22:02.676Z,97155.19
2023-08-17T10:24:29.191Z,97155.72
2023-08-17T10:26:55.607Z,97156.34
2023-08-17T10:29:22.010Z,97152.13
2023-08-17T10:31:48.473Z,97151.41
2023-08-17T10:34:14.949Z,97146.22
2023-08-17T10:36:41.384Z,97148.28
2023-08-17T10:39:12.594Z,97143.91
2023-08-17T10:41:39.099Z,97145.41
2023-08-17T10:44:05.536Z,97145.78
2023-08-17T10:46:32.116Z,97138.41
2023-08-17T10:48:58.870Z,97137.66
2023-08-17T10:51:25.308Z,97135.28
2023-08-17T10:53:51.744Z,97140.69
2023-08-17T10:56:18.185Z,97138.09
2023-08-17T10:58:44.621Z,97130.66
2023-08-17T11:01:11.043Z,97129.53
2023-08-17T11:03:37.531Z,97125.28
2023-08-17T11:06:03.984Z,97126.81
2023-08-17T11:08:30.432Z,97122.47
2023-08-17T11:10:56.886Z,97114.22
2023-08-17T11:13:24.800Z,97117.34
2023-08-17T11:15:51.228Z,97117.69
2023-08-17T11:18:17.754Z,97111.88
2023-08-17T11:20:44.176Z,97110.19
2023-08-17T11:23:10.888Z,97112.22
2023-08-17T11:25:37.389Z,97111.53
2023-08-17T11:28:03.802Z,97107.84
2023-08-17T11:30:30.327Z,97096.16
2023-08-17T11:32:56.782Z,97089.16
2023-08-17T11:35:23.243Z,97089.66
2023-08-17T11:37:49.660Z,97086.22
2023-08-17T11:40:16.062Z,97074.34
2023-08-17T11:42:42.466Z,97072.44
2023-08-17T11:45:08.894Z,97066.25
2023-08-17T11:47:35.379Z,97066.75
2023-08-17T11:50:14.638Z,97063.47
2023-08-17T11:52:46.805Z,97051.97
2023-08-17T11:55:13.300Z,97054.72
2023-08-17T11:57:39.752Z,97050.84
2023-08-17T12:00:06.158Z,97054.09
2023-08-17T12:02:32.589Z,97045.75
2023-08-17T12:04:59.047Z,97048.19
2023-08-17T12:07:25.495Z,97055.38
2023-08-17T12:09:51.982Z,97051.16
2023-08-17T12:12:18.411Z,97043.66
2023-08-17T12:14:46.142Z,97044.34
2023-08-17T12:17:12.928Z,97035.59
2023-08-17T12:19:39.356Z,97037.28
2023-08-17T12:22:05.793Z,97033.56
2023-08-17T12:24:32.203Z,97038.31
2023-08-17T12:26:58.740Z,97047.03
2023-08-17T12:29:25.205Z,97041.50
2023-08-17T12:31:51.729Z,97042.75
2023-08-17T12:34:18.166Z,97041.44
2023-08-17T12:36:44.688Z,97052.38
2023-08-17T12:39:11.126Z,97060.22
2023-08-17T12:41:37.560Z,97057.97
2023-08-17T12:44:04.008Z,97055.25
2023-08-17T12:46:32.559Z,97053.31
2023-08-17T12:48:59.230Z,97048.13
2023-08-17T12:51:25.643Z,97039.34
2023-08-17T12:53:52.191Z,97049.91
2023-08-17T12:56:18.588Z,97045.00
2023-08-17T12:58:45.013Z,97043.03
2023-08-17T13:01:11.458Z,97050.19
2023-08-17T13:03:37.944Z,97048.22
2023-08-17T13:06:04.513Z,97048.06
2023-08-17T13:08:31.085Z,97050.94
2023-08-17T13:10:57.536Z,97051.25
2023-08-17T13:13:24.018Z,97045.06
2023-08-17T13:15:53.527Z,97054.16
2023-08-17T13:18:19.980Z,97044.66
2023-08-17T13:20:46.460Z,97038.06
2023-08-17T13:23:12.872Z,97050.13
2023-08-17T13:25:41.475Z,97034.97
2023-08-17T13:28:07.903Z,97038.97
2023-08-17T13:30:34.325Z,97032.69
2023-08-17T13:33:00.813Z,97026.88
2023-08-17T13:35:27.289Z,97030.81
2023-08-17T13:37:53.686Z,97028.84
2023-08-17T13:40:20.081Z,97029.63
2023-08-17T13:42:46.520Z,97017.44
2023-08-17T13:45:13.032Z,97007.88
2023-08-17T13:47:39.515Z,97006.25
2023-08-17T13:50:06.075Z,97003.97
2023-08-17T13:52:32.559Z,96996.97
2023-08-17T13:55:00.972Z,96992.13
2023-08-17T13:57:27.440Z,96988.69
2023-08-17T13:59:53.883Z,96984.94
2023-08-17T14:02:22.495Z,96974.22
2023-08-17T14:04:48.921Z,96975.22
2023-08-17T14:07:15.332Z,96974.25
2023-08-17T14:09:48.716Z,96984.53
2023-08-17T14:12:20.904Z,96971.53
2023-08-17T14:14:47.352Z,96963.69
2023-08-17T14:17:13.822Z,96971.19
2023-08-17T14:19:40.274Z,96966.31
2023-08-17T14:22:06.668Z,96965.13
2023-08-17T14:24:33.321Z,96963.31
2023-08-17T14:26:59.815Z,96964.25
2023-08-17T14:29:28.057Z,96961.78
2023-08-17T14:31:56.204Z,96967.78
2023-08-17T14:34:22.968Z,96965.53
2023-08-17T14:36:49.367Z,96964.09
2023-08-17T14:39:18.216Z,96960.03
2023-08-17T14:41:46.654Z,96956.63
2023-08-17T14:44:13.303Z,96963.28
2023-08-17T14:46:39.707Z,96959.56
2023-08-17T14:49:06.147Z,96953.38
2023-08-17T14:51:32.536Z,96955.69
2023-08-17T14:53:58.981Z,96958.47
2023-08-17T14:56:25.404Z,96958.94
2023-08-17T14:58:51.850Z,96954.88
2023-08-17T15:01:19.003Z,96960.44
2023-08-17T15:03:45.767Z,96962.09
2023-08-17T15:06:23.863Z,96963.53
2023-08-17T15:08:58.556Z,96958.63
2023-08-17T15:11:25.020Z,96954.09
2023-08-17T15:13:51.504Z,96960.44
2023-08-17T15:16:18.062Z,96952.47
2023-08-17T15:18:44.552Z,96950.66
2023-08-17T15:21:11.001Z,96944.31
2023-08-17T15:23:37.472Z,96938.25
2023-08-17T15:26:04.023Z,96935.00
2023-08-17T15:28:32.829Z,96931.09
2023-08-17T15:30:59.258Z,96938.75
2023-08-17T15:33:25.660Z,96939.56
2023-08-17T15:35:52.132Z,96940.84
2023-08-17T15:38:18.645Z,96930.13
2023-08-17T15:40:45.062Z,96922.78
2023-08-17T15:43:11.544Z,96918.84
2023-08-17T15:45:38.046Z,96912.59
2023-08-17T15:48:04.586Z,96901.16
2023-08-17T15:50:31.107Z,96898.00
2023-08-17T15:52:57.513Z,96913.31
2023-08-17T15:55:23.968Z,96907.13
2023-08-17T15:57:51.042Z,96910.66
2023-08-17T16:00:18.079Z,96901.78
2023-08-17T16:02:44.561Z,96903.78
2023-08-17T16:05:11.065Z,96914.38
2023-08-17T16:07:37.571Z,96907.25
2023-08-17T16:10:04.061Z,96898.03
2023-08-17T16:12:30.552Z,96893.25
2023-08-17T16:14:56.970Z,96884.13
2023-08-17T16:17:23.403Z,96885.97
2023-08-17T16:19:49.857Z,96881.91
2023-08-17T16:22:17.635Z,96885.41
2023-08-17T16:24:44.139Z,96890.63
2023-08-17T16:27:10.559Z,96888.72
2023-08-17T16:29:38.977Z,96882.00
2023-08-17T16:32:09.103Z,96886.03
2023-08-17T16:34:35.733Z,96881.56
2023-08-17T16:37:02.285Z,96875.84
2023-08-17T16:39:28.742Z,96884.78
2023-08-17T16:41:55.197Z,96883.34
2023-08-17T16:44:21.654Z,96875.72
2023-08-17T16:46:48.191Z,96872.13
2023-08-17T16:49:14.790Z,96872.00
2023-08-17T16:51:41.261Z,96873.84
2023-08-17T16:54:07.673Z,96873.72
2023-08-17T16:56:34.153Z,96869.06
2023-08-17T16:59:02.169Z,96865.22
2023-08-17T17:01:29.093Z,96873.13
2023-08-17T17:03:58.002Z,96864.19
2023-08-17T17:06:24.478Z,96858.56
2023-08-17T17:08:50.926Z,96861.91
2023-08-17T17:11:17.415Z,96870.63
2023-08-17T17:13:43.876Z,96866.34
2023-08-17T17:16:10.385Z,96859.88
2023-08-17T17:18:36.909Z,96870.16
2023-08-17T17:21:03.360Z,96870.16
2023-08-17T17:23:29.837Z,96871.56
2023-08-17T17:25:56.290Z,96869.25
2023-08-17T17:28:22.798Z,96868.75
2023-08-17T17:30:49.225Z,96879.53
2023-08-17T17:33:15.729Z,96868.06
2023-08-17T17:35:42.165Z,96871.31
2023-08-17T17:38:08.612Z,96877.34
2023-08-17T17:40:35.029Z,96871.44
2023-08-17T17:43:01.468Z,96869.81
2023-08-17T17:45:27.864Z,96865.75
2023-08-17T17:47:54.457Z,96866.31
2023-08-17T17:50:21.001Z,96867.59
2023-08-17T17:52:48.834Z,96871.28
2023-08-17T17:55:15.362Z,96872.63
2023-08-17T17:57:42.890Z,96864.97
2023-08-17T18:00:09.377Z,96878.06
2023-08-17T18:02:35.945Z,96878.88
2023-08-17T18:05:02.444Z,96870.09
2023-08-17T18:07:29.203Z,96866.81
2023-08-17T18:09:55.845Z,96874.72
2023-08-17T18:12:22.316Z,96870.03
2023-08-17T18:14:48.781Z,96870.03
2023-08-17T18:17:15.220Z,96866.78
2023-08-17T18:19:41.644Z,96871.44
2023-08-17T18:22:08.195Z,96872.44
2023-08-17T18:24:34.792Z,96873.00
2023-08-17T18:27:04.299Z,96871.59
2023-08-17T18:29:30.772Z,96882.09
2023-08-17T18:31:57.285Z,96885.53
2023-08-17T18:34:23.776Z,96884.22
2023-08-17T18:36:50.251Z,96883.31
2023-08-17T18:39:16.673Z,96885.00
2023-08-17T18:41:43.180Z,96884.41
2023-08-17T18:44:09.635Z,96883.94
2023-08-17T18:46:36.057Z,96890.47
2023-08-17T18:49:02.507Z,96884.13
2023-08-17T18:51:29.030Z,96880.75
2023-08-17T18:53:55.419Z,96880.81
2023-08-17T18:56:21.859Z,96881.22
2023-08-17T18:58:48.344Z,96880.91
2023-08-17T19:01:14.912Z,96888.28
2023-08-17T19:03:41.491Z,96895.19
2023-08-17T19:06:07.933Z,96897.53
2023-08-17T19:08:34.349Z,96894.03
2023-08-17T19:11:00.807Z,96899.28
2023-08-17T19:13:27.259Z,96909.72
2023-08-17T19:15:53.785Z,96917.38
2023-08-17T19:18:20.283Z,96922.44
2023-08-17T19:20:46.768Z,96917.84
2023-08-17T19:23:13.181Z,96923.25
2023-08-17T19:25:39.704Z,96928.81
2023-08-17T19:28:06.196Z,96926.84
2023-08-17T19:30:32.690Z,96925.53
2023-08-17T19:32:59.166Z,96937.09
2023-08-17T19:35:25.653Z,96943.81
2023-08-17T19:37:52.087Z,96951.50
2023-08-17T19:40:18.517Z,96952.97
2023-08-17T19:42:45.009Z,96963.88
2023-08-17T19:45:11.493Z,96955.75
2023-08-17T19:47:37.946Z,96952.97
2023-08-17T19:50:04.462Z,96947.94
2023-08-17T19:52:30.971Z,96948.75
2023-08-17T19:54:57.434Z,96946.16
2023-08-17T19:57:23.913Z,96953.38
2023-08-17T19:59:53.500Z,96942.91
2023-08-17T20:02:19.970Z,96945.06
2023-08-17T20:04:46.595Z,96959.88
2023-08-17T20:07:13.042Z,96961.88
2023-08-17T20:09:39.489Z,96960.25
2023-08-17T20:12:05.934Z,96955.34
2023-08-17T20:14:32.371Z,96949.47
2023-08-17T20:16:58.772Z,96956.16
2023-08-17T20:19:25.209Z,96955.81
2023-08-17T20:21:51.695Z,96944.63
2023-08-17T20:24:18.217Z,96947.53
2023-08-17T20:26:44.770Z,96940.72
2023-08-17T20:29:11.411Z,96941.34
2023-08-17T20:31:37.997Z,96946.41
2023-08-17T20:34:04.565Z,96944.75
2023-08-17T20:36:31.038Z,96942.97
2023-08-17T20:38:57.538Z,96954.38
2023-08-17T20:41:24.097Z,96958.44
2023-08-17T20:43:50.597Z,96959.28
2023-08-17T20:46:17.190Z,96959.44
2023-08-17T20:48:43.706Z,96960.91
2023-08-17T20:51:10.406Z,96964.66
2023-08-17T20:53:36.996Z,96960.28
2023-08-17T20:56:03.595Z,96963.84
2023-08-17T20:58:30.074Z,96964.34
2023-08-17T21:00:56.719Z,96965.50
2023-08-17T21:03:23.301Z,96967.94
2023-08-17T21:05:50.355Z,96964.19
2023-08-17T21:08:19.244Z,96961.09
2023-08-17T21:10:46.292Z,96957.34
2023-08-17T21:13:13.466Z,96965.50
2023-08-17T21:15:40.097Z,96963.53
2023-08-17T21:18:06.650Z,96971.53
2023-08-17T21:20:33.189Z,96961.91
2023-08-17T21:22:59.708Z,96965.97
2023-08-17T21:25:26.201Z,96965.31
2023-08-17T21:27:52.696Z,96964.19
2023-08-17T21:30:21.746Z,96968.09
2023-08-17T21:32:48.294Z,96971.19
2023-08-17T21:35:14.863Z,96973.97
2023-08-17T21:37:41.391Z,96975.94
2023-08-17T21:40:07.820Z,96965.81
2023-08-17T21:42:34.353Z,96971.34
2023-08-17T21:45:00.759Z,96967.09
2023-08-17T21:47:27.413Z,96977.63
2023-08-17T21:49:54.092Z,96973.75
2023-08-17T21:52:20.602Z,96976.19
2023-08-17T21:54:47.093Z,96973.41
2023-08-17T21:57:13.510Z,96981.88
2023-08-17T21:59:39.908Z,96982.38
2023-08-17T22:02:06.976Z,96983.50
2023-08-17T22:04:34.621Z,96997.50
2023-08-17T22:07:01.028Z,96992.13
2023-08-17T22:09:27.461Z,96993.59
2023-08-17T22:11:53.903Z,96996.34
2023-08-17T22:14:20.305Z,96995.06
2023-08-17T22:16:46.770Z,96999.75
2023-08-17T22:19:13.602Z,97003.03
2023-08-17T22:21:40.070Z,97001.56
2023-08-17T22:24:06.477Z,97003.84
2023-08-17T22:26:32.911Z,97002.38
2023-08-17T22:28:59.488Z,97006.28
2023-08-17T22:31:26.060Z,97006.59
2023-08-17T22:33:52.584Z,97009.69
2023-08-17T22:36:19.033Z,97017.81
2023-08-17T22:38:45.414Z,97017.81
2023-08-17T22:41:11.804Z,97021.09
2023-08-17T22:43:38.225Z,97020.25
2023-08-17T22:46:04.640Z,97026.94
2023-08-17T22:48:31.082Z,97030.34
2023-08-17T22:50:57.509Z,97038.00
2023-08-17T22:53:23.917Z,97036.66
2023-08-17T22:55:50.344Z,97041.06
2023-08-17T22:58:16.927Z,97037.16
2023-08-17T23:00:43.362Z,97041.06
2023-08-17T23:03:09.802Z,97049.66
2023-08-17T23:05:36.244Z,97053.59
2023-08-17T23:08:02.687Z,97051.75
2023-08-17T23:10:29.248Z,97055.97
2023-08-17T23:12:55.677Z,97053.63
2023-08-17T23:15:22.077Z,97056.59
2023-08-17T23:17:48.553Z,97059.97
2023-08-17T23:20:15.017Z,97062.72
2023-08-17T23:22:41.452Z,97060.13
2023-08-17T23:25:07.933Z,97059.94
2023-08-17T23:27:34.428Z,97058.81
2023-08-17T23:30:00.913Z,97059.28
2023-08-17T23:32:28.666Z,97056.84
2023-08-17T23:34:55.458Z,97050.47
2023-08-17T23:37:21.883Z,97059.25
2023-08-17T23:39:48.330Z,97052.59
2023-08-17T23:42:14.795Z,97053.25
2023-08-17T23:44:41.228Z,97051.13
2023-08-17T23:47:07.648Z,97052.25
2023-08-17T23:49:34.077Z,97054.38
2023-08-17T23:52:00.465Z,97060.69
2023-08-17T23:54:26.880Z,97053.50
2023-08-17T23:56:53.379Z,97046.16
2023-08-17T23:59:19.890Z,97057.69
